createdAt,value
2018-07-26T00:01:19.283Z,20.50
2018-07-26T00:03:47.486Z,20.50
2018-07-26T00:06:15.699Z,20.40
2018-07-26T00:08:43.885Z,20.40
2018-07-26T00:11:12.278Z,20.30
2018-07-26T00:13:40.444Z,20.30
2018-07-26T00:16:08.729Z,20.30
2018-07-26T00:18:36.920Z,20.20
2018-07-26T00:21:05.172Z,20.20
2018-07-26T00:23:33.380Z,20.10
2018-07-26T00:26:01.644Z,20.10
2018-07-26T00:30:57.877Z,20.00
2018-07-26T00:33:26.065Z,20.00
2018-07-26T00:35:54.368Z,19.90
2018-07-26T00:38:22.596Z,19.80
2018-07-26T00:40:50.876Z,19.80
2018-07-26T00:43:19.068Z,19.70
2018-07-26T00:45:47.306Z,19.70
2018-07-26T00:48:15.531Z,19.70
2018-07-26T00:50:43.756Z,19.70
2018-07-26T00:53:12.194Z,19.60
2018-07-26T00:55:40.463Z,19.70
2018-07-26T00:58:12.591Z,19.70
2018-07-26T01:00:40.816Z,19.70
2018-07-26T01:03:09.079Z,19.70
2018-07-26T01:05:37.427Z,19.60
2018-07-26T01:08:05.822Z,19.60
2018-07-26T01:10:34.083Z,19.50
2018-07-26T01:13:12.527Z,19.50
2018-07-26T01:15:40.749Z,19.40
2018-07-26T01:18:08.974Z,19.40
2018-07-26T01:20:37.174Z,19.40
2018-07-26T01:23:05.372Z,19.30
2018-07-26T01:25:33.593Z,19.40
2018-07-26T01:28:01.797Z,19.30
2018-07-26T01:30:30.980Z,19.30
2018-07-26T01:32:59.189Z,19.40
2018-07-26T01:35:27.419Z,19.40
2018-07-26T01:37:56.055Z,19.30
2018-07-26T01:40:24.253Z,19.30
2018-07-26T01:43:07.580Z,19.30
2018-07-26T01:45:35.753Z,19.30
2018-07-26T01:48:03.988Z,19.30
2018-07-26T01:50:32.943Z,19.30
2018-07-26T01:53:01.320Z,19.20
2018-07-26T01:58:00.719Z,19.10
2018-07-26T02:00:28.926Z,19.10
2018-07-26T02:02:57.174Z,19.10
2018-07-26T02:05:25.447Z,19.10
2018-07-26T02:07:53.638Z,19.00
2018-07-26T02:10:22.822Z,19.00
2018-07-26T02:12:54.990Z,19.00
2018-07-26T02:15:23.291Z,19.00
2018-07-26T02:20:26.079Z,18.90
2018-07-26T02:22:54.315Z,18.80
2018-07-26T02:25:22.579Z,18.80
2018-07-26T02:27:54.272Z,18.70
2018-07-26T02:30:22.444Z,18.60
2018-07-26T02:32:50.696Z,18.60
2018-07-26T02:35:19.132Z,18.70
2018-07-26T02:37:47.323Z,18.70
2018-07-26T02:40:15.580Z,18.60
2018-07-26T02:42:44.265Z,18.60
2018-07-26T02:45:12.540Z,18.60
2018-07-26T02:47:40.771Z,18.50
2018-07-26T02:50:08.988Z,18.50
2018-07-26T02:52:37.370Z,18.50
2018-07-26T02:55:05.594Z,18.40
2018-07-26T02:57:33.818Z,18.40
2018-07-26T03:00:05.478Z,18.40
2018-07-26T03:02:33.957Z,18.30
2018-07-26T03:05:02.180Z,18.30
2018-07-26T03:07:30.339Z,18.20
2018-07-26T03:09:59.019Z,18.20
2018-07-26T03:12:27.240Z,18.20
2018-07-26T03:14:55.439Z,18.20
2018-07-26T03:17:23.675Z,18.20
2018-07-26T03:19:51.889Z,18.10
2018-07-26T03:24:48.125Z,18.10
2018-07-26T03:27:16.329Z,18.10
2018-07-26T03:29:44.706Z,18.10
2018-07-26T03:32:12.912Z,18.10
2018-07-26T03:34:41.114Z,18.10
2018-07-26T03:39:37.613Z,18.00
2018-07-26T03:42:06.069Z,18.10
2018-07-26T03:44:34.424Z,18.10
2018-07-26T03:47:02.672Z,18.10
2018-07-26T03:49:30.910Z,18.10
2018-07-26T03:51:59.141Z,18.10
2018-07-26T03:54:27.405Z,18.10
2018-07-26T03:56:55.836Z,18.00
2018-07-26T03:59:27.459Z,18.10
2018-07-26T04:01:56.067Z,18.00
2018-07-26T04:04:24.273Z,18.00
2018-07-26T04:06:52.520Z,18.00
2018-07-26T04:09:20.693Z,18.10
2018-07-26T04:11:48.891Z,18.00
2018-07-26T04:14:17.131Z,18.10
2018-07-26T04:16:45.349Z,18.20
2018-07-26T04:19:13.579Z,18.20
2018-07-26T04:21:41.867Z,18.30
2018-07-26T04:24:10.169Z,18.40
2018-07-26T04:26:38.439Z,18.60
2018-07-26T04:29:06.751Z,18.60
2018-07-26T04:31:35.105Z,18.80
2018-07-26T04:34:06.235Z,19.30
2018-07-26T04:36:34.474Z,20.20
2018-07-26T04:39:02.651Z,21.10
2018-07-26T04:41:31.163Z,21.80
2018-07-26T04:43:59.385Z,22.40
2018-07-26T04:46:27.579Z,23.30
2018-07-26T04:48:55.796Z,22.90
2018-07-26T04:51:24.102Z,23.30
2018-07-26T04:53:52.379Z,24.20
2018-07-26T04:56:20.585Z,24.40
2018-07-26T04:58:48.896Z,24.00
2018-07-26T05:01:17.164Z,23.60
2018-07-26T05:03:45.335Z,23.60
2018-07-26T05:06:13.559Z,24.40
2018-07-26T05:08:41.803Z,25.00
2018-07-26T05:11:10.085Z,24.90
2018-07-26T05:13:38.284Z,25.10
2018-07-26T05:16:06.607Z,25.10
2018-07-26T05:18:34.907Z,25.60
2018-07-26T05:21:03.170Z,25.60
2018-07-26T05:23:31.353Z,26.00
2018-07-26T05:26:00.512Z,26.40
2018-07-26T05:28:30.016Z,26.00
2018-07-26T05:33:31.703Z,26.90
2018-07-26T05:36:00.320Z,26.60
2018-07-26T05:38:28.603Z,26.80
2018-07-26T05:40:56.830Z,27.10
2018-07-26T05:43:25.204Z,27.40
2018-07-26T05:45:57.473Z,27.90
2018-07-26T05:48:25.762Z,28.10
2018-07-26T05:50:54.059Z,28.50
2018-07-26T05:53:22.258Z,28.70
2018-07-26T05:55:50.422Z,28.60
2018-07-26T05:58:18.756Z,28.10
2018-07-26T06:00:47.131Z,28.30
2018-07-26T06:03:15.362Z,28.30
2018-07-26T06:05:43.606Z,28.60
2018-07-26T06:10:39.931Z,28.50
2018-07-26T06:13:08.262Z,27.50
2018-07-26T06:15:37.064Z,27.50
2018-07-26T06:18:05.675Z,26.70
2018-07-26T06:20:34.314Z,27.90
2018-07-26T06:23:02.592Z,27.80
2018-07-26T06:25:30.793Z,28.40
2018-07-26T06:27:59.010Z,29.00
2018-07-26T06:30:27.197Z,29.60
2018-07-26T06:32:55.456Z,29.80
2018-07-26T06:35:23.623Z,29.60
2018-07-26T06:37:51.859Z,28.30
2018-07-26T06:40:20.062Z,28.20
2018-07-26T06:42:48.520Z,27.60
2018-07-26T06:45:16.721Z,26.80
2018-07-26T06:47:44.947Z,26.30
2018-07-26T06:50:13.482Z,25.80
2018-07-26T06:52:42.145Z,25.40
2018-07-26T06:55:11.119Z,25.00
2018-07-26T06:57:39.297Z,25.00
2018-07-26T07:02:36.417Z,25.00
2018-07-26T07:05:04.677Z,25.10
2018-07-26T07:07:32.861Z,25.10
2018-07-26T07:10:01.055Z,25.00
2018-07-26T07:12:29.263Z,25.00
2018-07-26T07:14:57.496Z,25.20
2018-07-26T07:17:25.715Z,25.40
2018-07-26T07:19:53.931Z,25.50
2018-07-26T07:22:22.152Z,25.40
2018-07-26T07:24:50.548Z,25.40
2018-07-26T07:27:18.834Z,25.30
2018-07-26T07:29:47.108Z,25.40
2018-07-26T07:32:15.481Z,25.50
2018-07-26T07:34:47.237Z,25.60
2018-07-26T07:37:15.495Z,25.60
2018-07-26T07:39:43.779Z,25.70
2018-07-26T07:42:12.040Z,25.80
2018-07-26T07:44:40.286Z,25.90
2018-07-26T07:47:08.492Z,25.90
2018-07-26T07:49:39.868Z,26.00
2018-07-26T07:52:08.030Z,26.10
2018-07-26T07:54:36.605Z,26.20
2018-07-26T07:57:05.000Z,26.30
2018-07-26T07:59:33.303Z,26.40
2018-07-26T08:02:01.515Z,26.50
2018-07-26T08:04:29.754Z,26.50
2018-07-26T08:06:57.963Z,26.50
2018-07-26T08:09:26.479Z,26.50
2018-07-26T08:11:54.766Z,26.60
2018-07-26T08:14:22.968Z,26.60
2018-07-26T08:16:51.199Z,26.60
2018-07-26T08:19:23.100Z,26.70
2018-07-26T08:21:51.655Z,26.80
2018-07-26T08:24:21.768Z,26.80
2018-07-26T08:26:50.303Z,26.80
2018-07-26T08:29:18.664Z,26.70
2018-07-26T08:31:46.805Z,26.90
2018-07-26T08:34:14.976Z,27.10
2018-07-26T08:36:43.170Z,27.10
2018-07-26T08:39:12.715Z,27.30
2018-07-26T08:41:41.584Z,27.40
2018-07-26T08:44:09.780Z,27.40
2018-07-26T08:46:37.996Z,27.50
2018-07-26T08:49:18.373Z,27.50
2018-07-26T08:51:46.629Z,27.50
2018-07-26T08:54:16.309Z,27.60
2018-07-26T08:56:44.518Z,27.60
2018-07-26T08:59:12.751Z,27.70
2018-07-26T09:01:41.067Z,27.80
2018-07-26T09:04:12.132Z,28.00
2018-07-26T09:06:40.323Z,28.00
2018-07-26T09:09:10.531Z,28.00
2018-07-26T09:11:38.783Z,28.10
2018-07-26T09:14:08.083Z,28.20
2018-07-26T09:16:36.523Z,28.10
2018-07-26T09:19:05.188Z,28.10
2018-07-26T09:21:33.464Z,28.20
2018-07-26T09:24:01.716Z,28.40
2018-07-26T09:26:29.977Z,28.40
2018-07-26T09:28:58.201Z,28.40
2018-07-26T09:31:26.396Z,28.40
2018-07-26T09:33:54.644Z,28.30
2018-07-26T09:36:23.531Z,28.40
2018-07-26T09:38:52.495Z,28.40
2018-07-26T09:41:20.707Z,28.40
2018-07-26T09:43:48.891Z,28.40
